Time;durP1;ratioP1;P1;durP2;ratioP2;P2;SDS_P1;SDS_P2;PMS_P1;PMS_P2;Temp;Humidity;BMP_temperature;BMP_pressure;BME280_temperature;BME280_humidity;BME280_pressure;Samples;Min_cycle;Max_cycle;Signal;HPM_P1;HPM_P2
2022/03/28 00:00:09;;;;;;;;;;;;;;;;;;1048808;28;2470;-70
2022/03/28 00:00:50;;;;;;;;;;;;;;;;;;1049192;28;3770;-70
2022/03/28 00:01:21;;;;;;;;;;;;;;;;;;1047038;28;3100;-71
2022/03/28 00:01:51;;;;;;;;;;;;;;;;;;1046605;28;3863;-70
2022/03/28 00:02:22;;;;;;;;;;;;;;;;;;1048226;28;2378;-70
2022/03/28 00:02:52;;;;;;;;;;;;;;;;;;1042067;28;3813;-70
2022/03/28 00:03:22;;;;;;;;;;;;;;;;;;1041564;28;2138;-70
2022/03/28 00:03:52;;;;;;;;;;;;;;;;;;1040670;28;3830;-69
2022/03/28 00:04:23;;;;;;;;;;;;;;;;;;1038172;28;1743;-70
2022/03/28 00:04:53;;;;;;;;;;;;;;;;;;1045462;28;3823;-68
2022/03/28 00:05:23;;;;;;;;;;;;;;;;;;1049896;28;1751;-71
2022/03/28 00:05:54;;;;;;;;;;;;;;;;;;1046146;28;3792;-70
2022/03/28 00:06:24;;;;;;;;;;;;;;;;;;1048921;28;2602;-71
2022/03/28 00:06:55;;;;;;;;;;;;;;;;;;1048247;28;4198;-73
2022/03/28 00:07:25;;;;;;;;;;;;;;;;;;1048201;28;2621;-69
2022/03/28 00:07:55;;;;;;;;;;;;;;;;;;1048902;28;3876;-69
2022/03/28 00:08:25;;;;;;;;;;;;;;;;;;1047353;28;2876;-70
2022/03/28 00:08:56;;;;;;;;;;;;;;;;;;1048475;28;3904;-71
2022/03/28 00:09:26;;;;;;;;;;;;;;;;;;1049786;28;1762;-72
2022/03/28 00:09:56;;;;;;;;;;;;;;;;;;1049295;28;3790;-72
2022/03/28 00:10:27;;;;;;;;;;;;;;;;;;1048589;28;2724;-70
2022/03/28 00:10:57;;;;;;;;;;;;;;;;;;1049881;28;3920;-72
2022/03/28 00:11:27;;;;;;;;;;;;;;;;;;1049068;28;2411;-72
2022/03/28 00:11:58;;;;;;;;;;;;;;;;;;1047619;28;3773;-70
2022/03/28 00:12:28;;;;;;;;;;;;;;;;;;1048890;28;2553;-69
2022/03/28 00:12:59;;;;;;;;;;;;;;;;;;1050223;28;3831;-70
2022/03/28 00:13:29;;;;;;;;;;;;;;;;;;1049348;28;2532;-71
2022/03/28 00:14:00;;;;;;;;;;;;;;;;;;1048183;28;3782;-72
2022/03/28 00:14:30;;;;;;;;;;;;;;;;;;1048691;28;2460;-70
2022/03/28 00:15:01;;;;;;;;;;;;;;;;;;1049093;28;3792;-73
2022/03/28 00:15:31;;;;;;;;;;;;;;;;;;1049114;28;2212;-73
2022/03/28 00:16:02;;;;;;;;;;;;;;;;;;1048531;28;3760;-70
2022/03/28 00:16:32;;;;;;;;;;;;;;;;;;1050586;28;2737;-69
2022/03/28 00:17:03;;;;;;;;;;;;;;;;;;1051158;28;3750;-70
2022/03/28 00:17:33;;;;;;;;;;;;;;;;;;1051614;28;3770;-72
2022/03/28 00:18:04;;;;;;;;;;;;;;;;;;1048968;28;2531;-71
2022/03/28 00:18:34;;;;;;;;;;;;;;;;;;1048094;28;3811;-74
2022/03/28 00:19:04;;;;;;;;;;;;;;;;;;1047840;28;2348;-72
2022/03/28 00:19:34;;;;;;;;;;;;;;;;;;1048174;28;3884;-72
2022/03/28 00:20:06;;;;;;;;;;;;;;;;;;1048818;28;2281;-69
2022/03/28 00:20:37;;;;;;;;;;;;;;;;;;1048762;28;3786;-69
2022/03/28 00:21:08;;;;;;;;;;;;;;;;;;1048578;28;3031;-72
2022/03/28 00:21:38;;;;;;;;;;;;;;;;;;1047518;28;3826;-70
2022/03/28 00:22:08;;;;;;;;;;;;;;;;;;1048516;28;1706;-71
2022/03/28 00:22:39;;;;;;;;;;;;;;;;;;1047654;28;4233;-71
2022/03/28 00:23:09;;;;;;;;;;;;;;;;;;1048554;28;2392;-71
2022/03/28 00:23:40;;;;;;;;;;;;;;;;;;1049277;28;3785;-69
2022/03/28 00:24:10;;;;;;;;;;;;;;;;;;1047975;28;2545;-73
2022/03/28 00:24:40;;;;;;;;;;;;;;;;;;1049131;28;3785;-70
2022/03/28 00:25:11;;;;;;;;;;;;;;;;;;1050263;28;2043;-72
2022/03/28 00:25:44;;;;;;;;;;;;;;;;;;1044406;28;3809;-70
2022/03/28 00:26:14;;;;;;;;;;;;;;;;;;1044585;28;2344;-71
2022/03/28 00:26:45;;;;;;;;;;;;;;;;;;1040390;28;3787;-72
2022/03/28 00:27:15;;;;;;;;;;;;;;;;;;1041963;28;2517;-70
2022/03/28 00:27:45;;;;;;;;;;;;;;;;;;1043635;28;3812;-70
2022/03/28 00:28:16;;;;;;;;;;;;;;;;;;1047629;28;3002;-72
2022/03/28 00:28:46;;;;;;;;;;;;;;;;;;1049057;28;3817;-71
2022/03/28 00:29:16;;;;;;;;;;;;;;;;;;1050282;28;1799;-74
2022/03/28 00:29:47;;;;;;;;;;;;;;;;;;1044604;28;3869;-69
2022/03/28 00:30:17;;;;;;;;;;;;;;;;;;1041956;28;2697;-72
2022/03/28 00:30:48;;;;;;;;;;;;;;;;;;1048152;28;3808;-72
2022/03/28 00:31:18;;;;;;;;;;;;;;;;;;1049360;28;1684;-72
2022/03/28 00:31:48;;;;;;;;;;;;;;;;;;1048102;28;3846;-71
2022/03/28 00:32:19;;;;;;;;;;;;;;;;;;1048400;28;2662;-69
2022/03/28 00:32:49;;;;;;;;;;;;;;;;;;1048807;28;3805;-69
2022/03/28 00:33:19;;;;;;;;;;;;;;;;;;1049698;28;1561;-70
2022/03/28 00:33:49;;;;;;;;;;;;;;;;;;1047407;28;3807;-71
2022/03/28 00:34:27;;;;;;;;;;;;;;;;;;1048710;28;2314;-70
2022/03/28 00:34:58;;;;;;;;;;;;;;;;;;1047791;28;3783;-69
2022/03/28 00:35:29;;;;;;;;;;;;;;;;;;1048228;28;2836;-71
2022/03/28 00:35:59;;;;;;;;;;;;;;;;;;1048633;28;3749;-72
2022/03/28 00:36:30;;;;;;;;;;;;;;;;;;1049183;28;2871;-70
2022/03/28 00:37:00;;;;;;;;;;;;;;;;;;1046469;28;3836;-72
2022/03/28 00:37:30;;;;;;;;;;;;;;;;;;1048175;28;2836;-68
2022/03/28 00:38:01;;;;;;;;;;;;;;;;;;1049088;28;3743;-70
2022/03/28 00:38:31;;;;;;;;;;;;;;;;;;1045484;28;2078;-70
2022/03/28 00:39:01;;;;;;;;;;;;;;;;;;1049212;28;3754;-71
2022/03/28 00:39:32;;;;;;;;;;;;;;;;;;1045041;28;2788;-68
2022/03/28 00:40:02;;;;;;;;;;;;;;;;;;1045787;28;3733;-71
2022/03/28 00:40:32;;;;;;;;;;;;;;;;;;1051107;28;2752;-70
2022/03/28 00:41:04;;;;;;;;;;;;;;;;;;1049371;28;3611;-72
2022/03/28 00:41:34;;;;;;;;;;;;;;;;;;1048308;28;3956;-68
2022/03/28 00:42:05;;;;;;;;;;;;;;;;;;1048827;28;2897;-70
2022/03/28 00:42:43;;;;;;;;;;;;;;;;;;1048015;28;3793;-72
2022/03/28 00:43:13;;;;;;;;;;;;;;;;;;1049330;28;2165;-73
2022/03/28 00:43:45;;;;;;;;;;;;;;;;;;1048119;28;3798;-69
2022/03/28 00:44:15;;;;;;;;;;;;;;;;;;1049864;28;2592;-73
2022/03/28 00:44:45;;;;;;;;;;;;;;;;;;1048562;28;3812;-73
2022/03/28 00:45:22;;;;;;;;;;;;;;;;;;1047984;28;2790;-69
2022/03/28 00:45:59;;;;;;;;;;;;;;;;;;1049478;28;3789;-71
2022/03/28 00:46:29;;;;;;;;;;;;;;;;;;1048774;28;2879;-71
2022/03/28 00:47:00;;;;;;;;;;;;;;;;;;1048819;28;3828;-69
2022/03/28 00:47:31;;;;;;;;;;;;;;;;;;1049271;28;2743;-71
2022/03/28 00:48:01;;;;;;;;;;;;;;;;;;1052548;28;3767;-70
2022/03/28 00:48:31;;;;;;;;;;;;;;;;;;1053801;28;2293;-69
2022/03/28 00:49:02;;;;;;;;;;;;;;;;;;1049383;28;3791;-72
2022/03/28 00:49:32;;;;;;;;;;;;;;;;;;1047200;28;3413;-73
2022/03/28 00:50:03;;;;;;;;;;;;;;;;;;1047998;28;3904;-70
2022/03/28 00:50:34;;;;;;;;;;;;;;;;;;1048808;28;3793;-71
2022/03/28 00:51:04;;;;;;;;;;;;;;;;;;1049329;28;2770;-71
2022/03/28 00:51:36;;;;;;;;;;;;;;;;;;1047689;28;3788;-71
2022/03/28 00:52:06;;;;;;;;;;;;;;;;;;1045268;28;3380;-69
2022/03/28 00:52:37;;;;;;;;;;;;;;;;;;1047355;28;4149;-70
2022/03/28 00:53:10;;;;;;;;;;;;;;;;;;1052989;28;2427;-70
2022/03/28 00:53:40;;;;;;;;;;;;;;;;;;1052126;28;3907;-72
2022/03/28 00:54:11;;;;;;;;;;;;;;;;;;1053746;28;1219;-72
2022/03/28 00:54:42;;;;;;;;;;;;;;;;;;1052052;28;3822;-71
2022/03/28 00:55:12;;;;;;;;;;;;;;;;;;1052317;28;1943;-72
2022/03/28 00:55:45;;;;;;;;;;;;;;;;;;1051896;28;3827;-71
2022/03/28 00:56:15;;;;;;;;;;;;;;;;;;1052538;28;2040;-72
2022/03/28 00:56:47;;;;;;;;;;;;;;;;;;1051917;28;3803;-73
2022/03/28 00:57:17;;;;;;;;;;;;;;;;;;1052927;28;2353;-68
2022/03/28 00:57:48;;;;;;;;;;;;;;;;;;1052103;28;3813;-72
2022/03/28 00:58:18;;;;;;;;;;;;;;;;;;1049181;28;2667;-73
2022/03/28 00:58:48;;;;;;;;;;;;;;;;;;1043068;28;3815;-72
2022/03/28 00:59:19;;;;;;;;;;;;;;;;;;1043851;28;2094;-70
2022/03/28 00:59:49;;;;;;;;;;;;;;;;;;1044570;28;3850;-71
2022/03/28 01:00:20;;;;;;;;;;;;;;;;;;1048638;28;2239;-71
2022/03/28 01:00:50;;;;;;;;;;;;;;;;;;1052169;28;3761;-70
2022/03/28 01:01:20;;;;;;;;;;;;;;;;;;1052747;28;2408;-73
2022/03/28 01:01:50;;;;;;;;;;;;;;;;;;1053623;28;3809;-72
2022/03/28 01:02:21;;;;;;;;;;;;;;;;;;1053105;28;2477;-71
2022/03/28 01:02:51;;;;;;;;;;;;;;;;;;1050705;28;3800;-74
2022/03/28 01:03:21;;;;;;;;;;;;;;;;;;1048235;28;2980;-71
2022/03/28 01:03:52;;;;;;;;;;;;;;;;;;1049109;28;3788;-70
2022/03/28 01:04:22;;;;;;;;;;;;;;;;;;1044861;28;2233;-74
2022/03/28 01:04:52;;;;;;;;;;;;;;;;;;1043801;28;3808;-71
2022/03/28 01:05:23;;;;;;;;;;;;;;;;;;1046577;28;2712;-70
2022/03/28 01:05:53;;;;;;;;;;;;;;;;;;1047730;28;4126;-72
2022/03/28 01:06:24;;;;;;;;;;;;;;;;;;1050501;28;3224;-75
2022/03/28 01:06:55;;;;;;;;;;;;;;;;;;1049211;28;3785;-69
2022/03/28 01:07:26;;;;;;;;;;;;;;;;;;1043640;28;2775;-69
2022/03/28 01:07:56;;;;;;;;;;;;;;;;;;1044885;28;3792;-69
2022/03/28 01:08:26;;;;;;;;;;;;;;;;;;1044700;28;2282;-71
2022/03/28 01:08:57;;;;;;;;;;;;;;;;;;1044024;28;3792;-70
2022/03/28 01:09:27;;;;;;;;;;;;;;;;;;1048319;28;2905;-72
2022/03/28 01:09:59;;;;;;;;;;;;;;;;;;1045660;28;3763;-68
2022/03/28 01:10:30;;;;;;;;;;;;;;;;;;1051305;28;2903;-72
2022/03/28 01:11:06;;;;;;;;;;;;;;;;;;1051972;28;3769;-71
2022/03/28 01:11:37;;;;;;;;;;;;;;;;;;1051810;28;4315;-71
2022/03/28 01:12:08;;;;;;;;;;;;;;;;;;1054094;28;2881;-71
2022/03/28 01:12:42;;;;;;;;;;;;;;;;;;1052627;28;3865;-69
2022/03/28 01:13:13;;;;;;;;;;;;;;;;;;1053423;28;1412;-71
2022/03/28 01:13:43;;;;;;;;;;;;;;;;;;1051570;28;3787;-72
2022/03/28 01:14:14;;;;;;;;;;;;;;;;;;1047995;28;2747;-70
2022/03/28 01:14:44;;;;;;;;;;;;;;;;;;1048569;28;5132;-71
2022/03/28 01:15:15;;;;;;;;;;;;;;;;;;1048164;28;2323;-71
2022/03/28 01:15:45;;;;;;;;;;;;;;;;;;1047865;28;3844;-71
2022/03/28 01:16:15;;;;;;;;;;;;;;;;;;1052008;28;2870;-70
2022/03/28 01:18:27;;;;;;;;;;;;;;;;;;1052527;28;2089;-71
2022/03/28 01:18:57;;;;;;;;;;;;;;;;;;1052740;28;3889;-71
2022/03/28 01:19:27;;;;;;;;;;;;;;;;;;1051345;28;2663;-73
2022/03/28 01:19:57;;;;;;;;;;;;;;;;;;1053189;28;3791;-72
2022/03/28 01:20:28;;;;;;;;;;;;;;;;;;1048606;28;2168;-71
2022/03/28 01:21:02;;;;;;;;;;;;;;;;;;1048110;28;3884;-69
2022/03/28 01:21:32;;;;;;;;;;;;;;;;;;1048931;28;2586;-72
2022/03/28 01:22:03;;;;;;;;;;;;;;;;;;1048698;28;3705;-73
2022/03/28 01:22:33;;;;;;;;;;;;;;;;;;1051823;28;3800;-70
2022/03/28 01:23:11;;;;;;;;;;;;;;;;;;1052209;28;2794;-70
2022/03/28 01:23:42;;;;;;;;;;;;;;;;;;1050998;28;3809;-72
2022/03/28 01:24:12;;;;;;;;;;;;;;;;;;1052644;28;1770;-72
2022/03/28 01:24:43;;;;;;;;;;;;;;;;;;1050842;28;3796;-70
2022/03/28 01:25:15;;;;;;;;;;;;;;;;;;1053810;28;3170;-70
2022/03/28 01:25:48;;;;;;;;;;;;;;;;;;1051601;28;3792;-69
2022/03/28 01:26:18;;;;;;;;;;;;;;;;;;1053280;28;1631;-73
2022/03/28 01:26:50;;;;;;;;;;;;;;;;;;1051911;28;3858;-73
2022/03/28 01:27:23;;;;;;;;;;;;;;;;;;1051689;28;2685;-69
2022/03/28 01:27:53;;;;;;;;;;;;;;;;;;1051022;28;3796;-70
2022/03/28 01:28:25;;;;;;;;;;;;;;;;;;1053193;28;2585;-71
2022/03/28 01:28:55;;;;;;;;;;;;;;;;;;1052858;28;3805;-69
2022/03/28 01:29:25;;;;;;;;;;;;;;;;;;1053996;28;1664;-70
2022/03/28 01:29:55;;;;;;;;;;;;;;;;;;1051111;28;3945;-71
2022/03/28 01:30:27;;;;;;;;;;;;;;;;;;1051883;28;1863;-72
2022/03/28 01:30:58;;;;;;;;;;;;;;;;;;1053290;28;3814;-73
2022/03/28 01:31:29;;;;;;;;;;;;;;;;;;1052673;28;2513;-71
2022/03/28 01:31:59;;;;;;;;;;;;;;;;;;1050948;28;3761;-71
2022/03/28 01:32:29;;;;;;;;;;;;;;;;;;1052787;28;2661;-72
2022/03/28 01:33:00;;;;;;;;;;;;;;;;;;1052293;28;3719;-70
2022/03/28 01:33:31;;;;;;;;;;;;;;;;;;1053355;28;2510;-69
2022/03/28 01:34:01;;;;;;;;;;;;;;;;;;1051286;28;3817;-73
2022/03/28 01:34:31;;;;;;;;;;;;;;;;;;1051412;28;2774;-73
2022/03/28 01:35:01;;;;;;;;;;;;;;;;;;1051522;28;3735;-70
2022/03/28 01:35:32;;;;;;;;;;;;;;;;;;1048934;28;2387;-72
2022/03/28 01:36:02;;;;;;;;;;;;;;;;;;1048624;28;3740;-71
2022/03/28 01:36:32;;;;;;;;;;;;;;;;;;1049276;28;2026;-71
2022/03/28 01:37:03;;;;;;;;;;;;;;;;;;1048262;28;4894;-72
2022/03/28 01:37:33;;;;;;;;;;;;;;;;;;1049969;28;3923;-73
2022/03/28 01:38:13;;;;;;;;;;;;;;;;;;1052692;28;2393;-72
2022/03/28 01:38:44;;;;;;;;;;;;;;;;;;1051976;28;3771;-72
2022/03/28 01:39:15;;;;;;;;;;;;;;;;;;1052196;28;2605;-70
2022/03/28 01:39:45;;;;;;;;;;;;;;;;;;1045843;28;3970;-68
2022/03/28 01:40:15;;;;;;;;;;;;;;;;;;1047174;28;2605;-72
2022/03/28 01:40:47;;;;;;;;;;;;;;;;;;1047647;28;3834;-72
2022/03/28 01:41:17;;;;;;;;;;;;;;;;;;1048075;28;2372;-71
2022/03/28 01:41:48;;;;;;;;;;;;;;;;;;1053064;28;3871;-71
2022/03/28 01:42:18;;;;;;;;;;;;;;;;;;1049677;28;1513;-70
2022/03/28 01:42:49;;;;;;;;;;;;;;;;;;1048553;28;3821;-72
2022/03/28 01:43:26;;;;;;;;;;;;;;;;;;1048180;28;2593;-72
2022/03/28 01:43:56;;;;;;;;;;;;;;;;;;1048340;28;3781;-68
2022/03/28 01:44:26;;;;;;;;;;;;;;;;;;1047321;28;2372;-75
2022/03/28 01:44:57;;;;;;;;;;;;;;;;;;1049668;28;3815;-71
2022/03/28 01:45:34;;;;;;;;;;;;;;;;;;1048239;28;2535;-70
2022/03/28 01:46:11;;;;;;;;;;;;;;;;;;1048297;28;3734;-72
2022/03/28 01:46:48;;;;;;;;;;;;;;;;;;1047704;28;3785;-70
2022/03/28 01:47:18;;;;;;;;;;;;;;;;;;1048569;28;2302;-69
2022/03/28 01:47:49;;;;;;;;;;;;;;;;;;1048523;28;3811;-73
2022/03/28 01:48:19;;;;;;;;;;;;;;;;;;1046977;28;2680;-71
2022/03/28 01:48:49;;;;;;;;;;;;;;;;;;1046796;28;3813;-74
2022/03/28 01:49:20;;;;;;;;;;;;;;;;;;1047631;28;2682;-72
2022/03/28 01:49:50;;;;;;;;;;;;;;;;;;1048126;28;3888;-72
2022/03/28 01:50:21;;;;;;;;;;;;;;;;;;1048469;28;2645;-69
2022/03/28 01:50:51;;;;;;;;;;;;;;;;;;1048654;28;3820;-71
2022/03/28 01:51:21;;;;;;;;;;;;;;;;;;1044139;28;2463;-72
2022/03/28 01:51:52;;;;;;;;;;;;;;;;;;1042784;28;3788;-72
2022/03/28 01:52:22;;;;;;;;;;;;;;;;;;1043520;28;2167;-70
2022/03/28 01:52:52;;;;;;;;;;;;;;;;;;1047569;28;3792;-73
2022/03/28 01:53:22;;;;;;;;;;;;;;;;;;1048989;28;2488;-70
2022/03/28 01:53:53;;;;;;;;;;;;;;;;;;1047557;28;3884;-71
2022/03/28 01:54:23;;;;;;;;;;;;;;;;;;1047191;28;2693;-73
2022/03/28 01:54:53;;;;;;;;;;;;;;;;;;1046689;28;3817;-72
2022/03/28 01:55:24;;;;;;;;;;;;;;;;;;1048433;28;2115;-73
2022/03/28 01:55:54;;;;;;;;;;;;;;;;;;1047790;28;3778;-73
2022/03/28 01:56:24;;;;;;;;;;;;;;;;;;1048875;28;2808;-70
2022/03/28 01:56:54;;;;;;;;;;;;;;;;;;1045772;28;3787;-74
2022/03/28 01:57:25;;;;;;;;;;;;;;;;;;1048818;28;2611;-70
2022/03/28 01:57:55;;;;;;;;;;;;;;;;;;1048286;28;3790;-73
2022/03/28 01:58:25;;;;;;;;;;;;;;;;;;1046799;28;2708;-73
2022/03/28 01:58:55;;;;;;;;;;;;;;;;;;1045694;28;3850;-75
2022/03/28 01:59:26;;;;;;;;;;;;;;;;;;1048236;28;3585;-73
2022/03/28 01:59:56;;;;;;;;;;;;;;;;;;1046897;28;4038;-70
2022/03/28 02:00:31;;;;;;;;;;;;;;;;;;1047175;28;2325;-72
2022/03/28 02:01:01;;;;;;;;;;;;;;;;;;1047936;28;3735;-73
2022/03/28 02:01:32;;;;;;;;;;;;;;;;;;1048923;28;2823;-74
2022/03/28 02:02:02;;;;;;;;;;;;;;;;;;1047789;28;3694;-69
2022/03/28 02:02:33;;;;;;;;;;;;;;;;;;1048427;28;3951;-70
2022/03/28 02:03:03;;;;;;;;;;;;;;;;;;1048242;28;2405;-72
2022/03/28 02:03:34;;;;;;;;;;;;;;;;;;1048839;28;3785;-70
2022/03/28 02:04:04;;;;;;;;;;;;;;;;;;1049107;28;2401;-70
2022/03/28 02:04:34;;;;;;;;;;;;;;;;;;1048145;28;3810;-70
2022/03/28 02:05:05;;;;;;;;;;;;;;;;;;1047656;28;2485;-71
2022/03/28 02:05:36;;;;;;;;;;;;;;;;;;1047337;28;3772;-72
2022/03/28 02:06:07;;;;;;;;;;;;;;;;;;1047180;28;2366;-72
2022/03/28 02:06:37;;;;;;;;;;;;;;;;;;1042019;28;3813;-70
2022/03/28 02:07:07;;;;;;;;;;;;;;;;;;1044300;28;2737;-70
2022/03/28 02:07:39;;;;;;;;;;;;;;;;;;1047428;28;3950;-68
2022/03/28 02:08:09;;;;;;;;;;;;;;;;;;1047947;28;3045;-71
2022/03/28 02:08:40;;;;;;;;;;;;;;;;;;1047875;28;3829;-72
2022/03/28 02:09:10;;;;;;;;;;;;;;;;;;1048456;28;2738;-72
2022/03/28 02:09:41;;;;;;;;;;;;;;;;;;1046680;28;4587;-74
2022/03/28 02:10:13;;;;;;;;;;;;;;;;;;1049204;28;2274;-71
2022/03/28 02:10:43;;;;;;;;;;;;;;;;;;1047320;28;3825;-70
2022/03/28 02:11:13;;;;;;;;;;;;;;;;;;1047852;28;2365;-74
2022/03/28 02:11:45;;;;;;;;;;;;;;;;;;1047270;28;3858;-70
2022/03/28 02:12:15;;;;;;;;;;;;;;;;;;1047898;28;2935;-70
2022/03/28 02:12:46;;;;;;;;;;;;;;;;;;1048638;28;3813;-71
2022/03/28 02:13:16;;;;;;;;;;;;;;;;;;1048568;28;2006;-73
2022/03/28 02:13:47;;;;;;;;;;;;;;;;;;1047674;28;3828;-69
2022/03/28 02:14:17;;;;;;;;;;;;;;;;;;1048687;28;2390;-71
2022/03/28 02:14:47;;;;;;;;;;;;;;;;;;1044332;28;3817;-71
2022/03/28 02:15:18;;;;;;;;;;;;;;;;;;1044725;28;2512;-69
2022/03/28 02:15:48;;;;;;;;;;;;;;;;;;1048924;28;3795;-72
2022/03/28 02:16:18;;;;;;;;;;;;;;;;;;1046598;28;2655;-69
2022/03/28 02:16:49;;;;;;;;;;;;;;;;;;1046655;28;3824;-69
2022/03/28 02:17:19;;;;;;;;;;;;;;;;;;1046887;28;2637;-69
2022/03/28 02:17:49;;;;;;;;;;;;;;;;;;1048602;28;3853;-73
2022/03/28 02:18:20;;;;;;;;;;;;;;;;;;1048806;28;1575;-71
2022/03/28 02:18:50;;;;;;;;;;;;;;;;;;1047184;28;3779;-72
2022/03/28 02:19:20;;;;;;;;;;;;;;;;;;1048593;28;3060;-69
2022/03/28 02:19:51;;;;;;;;;;;;;;;;;;1047039;28;3813;-68
2022/03/28 02:20:21;;;;;;;;;;;;;;;;;;1048132;28;2839;-71
2022/03/28 02:20:51;;;;;;;;;;;;;;;;;;1048068;28;3940;-72
2022/03/28 02:21:21;;;;;;;;;;;;;;;;;;1048615;28;1943;-69
2022/03/28 02:21:52;;;;;;;;;;;;;;;;;;1046985;28;3796;-69
2022/03/28 02:22:22;;;;;;;;;;;;;;;;;;1048470;28;2728;-69
2022/03/28 02:22:52;;;;;;;;;;;;;;;;;;1048462;28;3814;-71
2022/03/28 02:23:23;;;;;;;;;;;;;;;;;;1047196;28;2848;-72
2022/03/28 02:23:53;;;;;;;;;;;;;;;;;;1049168;28;3778;-70
2022/03/28 02:24:23;;;;;;;;;;;;;;;;;;1049325;28;2865;-72
2022/03/28 02:24:53;;;;;;;;;;;;;;;;;;1048442;28;3763;-73
2022/03/28 02:25:24;;;;;;;;;;;;;;;;;;1049014;28;1709;-67
2022/03/28 02:25:54;;;;;;;;;;;;;;;;;;1046999;28;3786;-73
2022/03/28 02:26:24;;;;;;;;;;;;;;;;;;1049146;28;2469;-72
2022/03/28 02:26:54;;;;;;;;;;;;;;;;;;1046587;28;3790;-73
2022/03/28 02:27:25;;;;;;;;;;;;;;;;;;1049214;28;2369;-70
2022/03/28 02:27:55;;;;;;;;;;;;;;;;;;1047919;28;3886;-72
2022/03/28 02:28:25;;;;;;;;;;;;;;;;;;1047353;28;2411;-70
2022/03/28 02:28:56;;;;;;;;;;;;;;;;;;1046694;28;3803;-69
2022/03/28 02:29:26;;;;;;;;;;;;;;;;;;1048910;28;1623;-71
2022/03/28 02:29:56;;;;;;;;;;;;;;;;;;1049426;28;3783;-70
2022/03/28 02:30:27;;;;;;;;;;;;;;;;;;1047469;28;2950;-70
2022/03/28 02:31:04;;;;;;;;;;;;;;;;;;1048455;28;3776;-71
2022/03/28 02:31:34;;;;;;;;;;;;;;;;;;1047719;28;3818;-72
2022/03/28 02:32:05;;;;;;;;;;;;;;;;;;1047968;28;3155;-71
2022/03/28 02:32:35;;;;;;;;;;;;;;;;;;1047510;28;3814;-69
2022/03/28 02:33:06;;;;;;;;;;;;;;;;;;1048812;28;2673;-71
2022/03/28 02:33:36;;;;;;;;;;;;;;;;;;1047293;28;3833;-71
2022/03/28 02:34:06;;;;;;;;;;;;;;;;;;1048329;28;2556;-71
2022/03/28 02:34:37;;;;;;;;;;;;;;;;;;1048702;28;3862;-72
2022/03/28 02:35:09;;;;;;;;;;;;;;;;;;1048461;28;2880;-70
2022/03/28 02:35:40;;;;;;;;;;;;;;;;;;1046172;28;3783;-73
2022/03/28 02:36:10;;;;;;;;;;;;;;;;;;1047512;28;2455;-68
2022/03/28 02:36:41;;;;;;;;;;;;;;;;;;1046778;28;3833;-71
2022/03/28 02:37:11;;;;;;;;;;;;;;;;;;1048836;28;2498;-74
2022/03/28 02:37:41;;;;;;;;;;;;;;;;;;1047740;28;3784;-71
2022/03/28 02:38:12;;;;;;;;;;;;;;;;;;1049317;28;2205;-72
2022/03/28 02:38:42;;;;;;;;;;;;;;;;;;1045995;28;3803;-67
2022/03/28 02:39:12;;;;;;;;;;;;;;;;;;1048673;28;2758;-68
2022/03/28 02:39:42;;;;;;;;;;;;;;;;;;1047517;28;3945;-72
2022/03/28 02:40:13;;;;;;;;;;;;;;;;;;1048970;28;1881;-71
2022/03/28 02:40:43;;;;;;;;;;;;;;;;;;1047896;28;3821;-72
2022/03/28 02:41:13;;;;;;;;;;;;;;;;;;1046818;28;2662;-70
2022/03/28 02:41:44;;;;;;;;;;;;;;;;;;1047434;28;3826;-72
2022/03/28 02:42:14;;;;;;;;;;;;;;;;;;1049167;28;2720;-71
2022/03/28 02:42:44;;;;;;;;;;;;;;;;;;1046590;28;3922;-72
2022/03/28 02:43:14;;;;;;;;;;;;;;;;;;1048362;28;2229;-75
2022/03/28 02:43:45;;;;;;;;;;;;;;;;;;1047810;28;3789;-73
2022/03/28 02:44:17;;;;;;;;;;;;;;;;;;1049796;28;2657;-72
2022/03/28 02:44:47;;;;;;;;;;;;;;;;;;1048311;28;3794;-71
2022/03/28 02:45:18;;;;;;;;;;;;;;;;;;1046148;28;2469;-70
2022/03/28 02:45:55;;;;;;;;;;;;;;;;;;1047181;28;3830;-69
2022/03/28 02:46:25;;;;;;;;;;;;;;;;;;1048247;28;2808;-74
2022/03/28 02:46:55;;;;;;;;;;;;;;;;;;1049026;28;3839;-73
2022/03/28 02:47:26;;;;;;;;;;;;;;;;;;1044453;28;2239;-72
2022/03/28 02:47:56;;;;;;;;;;;;;;;;;;1043504;28;3784;-72
2022/03/28 02:48:26;;;;;;;;;;;;;;;;;;1048311;28;2075;-72
2022/03/28 02:48:57;;;;;;;;;;;;;;;;;;1048839;28;3816;-71
2022/03/28 02:49:27;;;;;;;;;;;;;;;;;;1049732;28;2430;-72
2022/03/28 02:49:57;;;;;;;;;;;;;;;;;;1049264;28;3807;-71
2022/03/28 02:50:29;;;;;;;;;;;;;;;;;;1047441;28;3141;-68
2022/03/28 02:50:59;;;;;;;;;;;;;;;;;;1047733;28;4066;-70
2022/03/28 02:51:29;;;;;;;;;;;;;;;;;;1048869;28;2744;-70
2022/03/28 02:52:00;;;;;;;;;;;;;;;;;;1044033;28;3895;-72
2022/03/28 02:52:30;;;;;;;;;;;;;;;;;;1046133;28;2385;-68
2022/03/28 02:53:00;;;;;;;;;;;;;;;;;;1043908;28;3783;-70
2022/03/28 02:53:30;;;;;;;;;;;;;;;;;;1044571;28;2804;-70
2022/03/28 02:54:01;;;;;;;;;;;;;;;;;;1047663;28;3748;-70
2022/03/28 02:54:31;;;;;;;;;;;;;;;;;;1049592;28;2253;-68
2022/03/28 02:55:01;;;;;;;;;;;;;;;;;;1049010;28;3767;-71
2022/03/28 02:55:31;;;;;;;;;;;;;;;;;;1048907;28;2701;-70
2022/03/28 02:56:02;;;;;;;;;;;;;;;;;;1046615;28;3797;-74
2022/03/28 02:56:32;;;;;;;;;;;;;;;;;;1044002;28;2249;-70
2022/03/28 02:57:03;;;;;;;;;;;;;;;;;;1040550;28;3606;-72
2022/03/28 02:57:33;;;;;;;;;;;;;;;;;;1040730;28;3816;-70
2022/03/28 02:58:04;;;;;;;;;;;;;;;;;;1046151;28;1831;-69
2022/03/28 02:58:34;;;;;;;;;;;;;;;;;;1048725;28;3794;-68
2022/03/28 02:59:05;;;;;;;;;;;;;;;;;;1050050;28;2244;-70
2022/03/28 02:59:35;;;;;;;;;;;;;;;;;;1046934;28;3984;-72
2022/03/28 03:00:10;;;;;;;;;;;;;;;;;;1048922;28;2833;-73
2022/03/28 03:00:40;;;;;;;;;;;;;;;;;;1050466;28;3832;-72
2022/03/28 03:01:10;;;;;;;;;;;;;;;;;;1050722;28;2311;-73
2022/03/28 03:01:41;;;;;;;;;;;;;;;;;;1048132;28;3810;-73
2022/03/28 03:02:11;;;;;;;;;;;;;;;;;;1048568;28;3221;-68
2022/03/28 03:02:42;;;;;;;;;;;;;;;;;;1047564;28;3807;-73
2022/03/28 03:03:12;;;;;;;;;;;;;;;;;;1050049;28;2472;-68
2022/03/28 03:03:42;;;;;;;;;;;;;;;;;;1043766;28;3808;-70
2022/03/28 03:04:12;;;;;;;;;;;;;;;;;;1044128;28;2613;-70
2022/03/28 03:04:43;;;;;;;;;;;;;;;;;;1043345;28;3892;-71
2022/03/28 03:05:13;;;;;;;;;;;;;;;;;;1044780;28;1361;-68
2022/03/28 03:05:43;;;;;;;;;;;;;;;;;;1048419;28;3796;-72
2022/03/28 03:06:13;;;;;;;;;;;;;;;;;;1049357;28;2561;-73
2022/03/28 03:06:44;;;;;;;;;;;;;;;;;;1046883;28;3860;-71
2022/03/28 03:07:14;;;;;;;;;;;;;;;;;;1049765;28;2723;-74
2022/03/28 03:07:47;;;;;;;;;;;;;;;;;;1047398;28;3845;-71
2022/03/28 03:08:18;;;;;;;;;;;;;;;;;;1047844;28;2357;-70
2022/03/28 03:08:48;;;;;;;;;;;;;;;;;;1047997;28;3995;-71
2022/03/28 03:09:18;;;;;;;;;;;;;;;;;;1048674;28;2171;-72
2022/03/28 03:09:48;;;;;;;;;;;;;;;;;;1048631;28;3840;-69
2022/03/28 03:10:19;;;;;;;;;;;;;;;;;;1047243;28;2481;-70
2022/03/28 03:10:49;;;;;;;;;;;;;;;;;;1049427;28;3859;-70
2022/03/28 03:11:19;;;;;;;;;;;;;;;;;;1050018;28;1381;-70
2022/03/28 03:11:50;;;;;;;;;;;;;;;;;;1048687;28;3802;-72
2022/03/28 03:12:20;;;;;;;;;;;;;;;;;;1049066;28;2271;-68
2022/03/28 03:12:50;;;;;;;;;;;;;;;;;;1049101;28;3804;-70
2022/03/28 03:13:21;;;;;;;;;;;;;;;;;;1049558;28;2666;-68
2022/03/28 03:13:53;;;;;;;;;;;;;;;;;;1049618;28;3898;-74
2022/03/28 03:14:23;;;;;;;;;;;;;;;;;;1048579;28;2769;-69
2022/03/28 03:14:54;;;;;;;;;;;;;;;;;;1048569;28;3813;-71
2022/03/28 03:15:24;;;;;;;;;;;;;;;;;;1046940;28;2787;-72
2022/03/28 03:15:54;;;;;;;;;;;;;;;;;;1049267;28;3954;-73
2022/03/28 03:16:25;;;;;;;;;;;;;;;;;;1049008;28;2354;-69
2022/03/28 03:16:55;;;;;;;;;;;;;;;;;;1048517;28;3796;-70
2022/03/28 03:17:25;;;;;;;;;;;;;;;;;;1048587;28;2736;-70
2022/03/28 03:17:55;;;;;;;;;;;;;;;;;;1048571;28;3804;-69
2022/03/28 03:18:26;;;;;;;;;;;;;;;;;;1049963;28;1466;-72
2022/03/28 03:18:56;;;;;;;;;;;;;;;;;;1049362;28;3792;-69
2022/03/28 03:19:26;;;;;;;;;;;;;;;;;;1048319;28;2581;-71
2022/03/28 03:19:56;;;;;;;;;;;;;;;;;;1048082;28;3836;-70
2022/03/28 03:20:27;;;;;;;;;;;;;;;;;;1048225;28;2387;-71
2022/03/28 03:20:58;;;;;;;;;;;;;;;;;;1045219;28;3795;-71
2022/03/28 03:21:29;;;;;;;;;;;;;;;;;;1048636;28;3053;-74
2022/03/28 03:21:59;;;;;;;;;;;;;;;;;;1049425;28;3772;-71
2022/03/28 03:22:29;;;;;;;;;;;;;;;;;;1049173;28;2567;-73
2022/03/28 03:23:00;;;;;;;;;;;;;;;;;;1049854;28;3989;-72
2022/03/28 03:23:30;;;;;;;;;;;;;;;;;;1049514;28;1905;-72
2022/03/28 03:24:00;;;;;;;;;;;;;;;;;;1048918;28;3809;-71
2022/03/28 03:24:31;;;;;;;;;;;;;;;;;;1049006;28;2139;-71
2022/03/28 03:25:02;;;;;;;;;;;;;;;;;;1048791;28;3772;-70
2022/03/28 03:25:32;;;;;;;;;;;;;;;;;;1047314;28;2805;-70
2022/03/28 03:26:03;;;;;;;;;;;;;;;;;;1049716;28;3747;-70
2022/03/28 03:26:33;;;;;;;;;;;;;;;;;;1046878;28;3825;-73
2022/03/28 03:27:03;;;;;;;;;;;;;;;;;;1049375;28;2840;-68
2022/03/28 03:27:38;;;;;;;;;;;;;;;;;;1049269;28;3808;-72
2022/03/28 03:28:08;;;;;;;;;;;;;;;;;;1049394;28;2377;-70
2022/03/28 03:28:38;;;;;;;;;;;;;;;;;;1046836;28;3859;-70
2022/03/28 03:29:08;;;;;;;;;;;;;;;;;;1050028;28;2372;-72
2022/03/28 03:29:39;;;;;;;;;;;;;;;;;;1048976;28;3836;-69
2022/03/28 03:30:10;;;;;;;;;;;;;;;;;;1048734;28;2841;-74
2022/03/28 03:30:40;;;;;;;;;;;;;;;;;;1048111;28;3862;-71
2022/03/28 03:31:17;;;;;;;;;;;;;;;;;;1047085;28;2995;-71
2022/03/28 03:31:47;;;;;;;;;;;;;;;;;;1048359;28;3787;-70
2022/03/28 03:32:18;;;;;;;;;;;;;;;;;;1049917;28;1926;-72
2022/03/28 03:32:48;;;;;;;;;;;;;;;;;;1047530;28;5091;-74
2022/03/28 03:33:18;;;;;;;;;;;;;;;;;;1048258;28;2858;-69
2022/03/28 03:33:49;;;;;;;;;;;;;;;;;;1048445;28;3786;-70
2022/03/28 03:34:19;;;;;;;;;;;;;;;;;;1048911;28;2170;-70
2022/03/28 03:34:51;;;;;;;;;;;;;;;;;;1049412;28;3822;-73
2022/03/28 03:35:22;;;;;;;;;;;;;;;;;;1049402;28;2532;-72